< < Back
Terminal Aerodrome Forecast


Current Version              Previous Versions:   1  2  3  4  5  6  7  8  9  

Terminal Aerodrome Forecast

103
FTUS44 KMOB 291732
TAFPNS
TAF
KPNS 291732Z 2918/3018 27008KT P6SM VCSH SCT028 BKN100 BKN250
     FM300000 23010KT P6SM SCT050 SCT250
     FM300900 25005KT P6SM VCSH SCT040 BKN150
     FM301300 27010KT P6SM VCTS SCT035CB BKN100 PROB30 3013/3018 4SM
      TSRA BKN035CB=

Latest METAR

781
SAUS70 KWBC 300300 RRA
MTRPNS
METAR KPNS 300253Z 22006KT 10SM CLR 26/23 A3002 RMK AO2 SLP167 T02610233
53009


USA.gov is the U.S. government's official web portal to all federal, state and local government web resources and services.